Accueil
METAR-TAF:

METAR-TAF

Aéroports :

Aéroport international de Hong Kong

Hong Kong, Chine

latitude: 22-19N, longitude: 113-55E, altitude: 9 m

Observation

Le bulletin a été fait il y a 14 minutes, à 06:00 UTC
Vent 16 kt de est
Température 31°C
Humidité 63%
Pression 1008 hPa
Visibilité 10 km ou plus
Quelques nuages à une hauteur de 2300 ft

METAR: VHHH 260600Z 10016KT 9999 FEW023 31/23 Q1008 NOSIG

Heure: 14:14 (06:14 UTC)

Prévision

Le bulletin a été fait il y a 1 heure et 14 minutes, à 05:00 UTC
Prévision valable du 26 à 06 UTC au 27 à 12 UTC
Vent 15 kt de est
Visibilité: 9000 m
Quelques nuages à une hauteur de 2000 ft

TAF: VHHH 260500Z 2606/2712 08015KT 9000 FEW020 TX32/2606Z TX31/2706Z TN27/2622Z

Observations et prévisions météorologiques de plus de 4000 aéroports (messages METAR et TAF).

Les stations disponibles sont représentées par des disques jaunes et rouges sur la carte.

Passer la souris dessus pour voir le nom de la station.

Cliquer dessus pour voir les observations et prévisions météorologiques.

Pour changer de carte: cliquez sur les boutons verts avec une croix noire pour zoomer, sur le bouton vert avec un tiret pour effectuer un zoom arrière, ou sur les flèches vertes pour les cartes adjacentes.


METAR-TAF: